createdAt,value
2023-02-24T00:02:05.421Z,46.03
2023-02-24T00:04:39.925Z,49.47
2023-02-24T00:07:10.538Z,51.33
2023-02-24T00:09:39.415Z,47.87
2023-02-24T00:12:12.114Z,55.77
2023-02-24T00:14:43.433Z,51.27
2023-02-24T00:17:14.695Z,49.27
2023-02-24T00:19:42.909Z,47.60
2023-02-24T00:22:10.646Z,46.47
2023-02-24T00:24:38.357Z,50.70
2023-02-24T00:27:12.443Z,47.20
2023-02-24T00:29:42.309Z,48.77
2023-02-24T00:32:13.454Z,50.00
2023-02-24T00:34:41.894Z,47.87
2023-02-24T00:37:09.449Z,51.13
2023-02-24T00:39:41.657Z,47.77
2023-02-24T00:42:09.640Z,49.97
2023-02-24T00:44:45.124Z,47.73
2023-02-24T00:47:14.147Z,46.77
2023-02-24T00:49:43.443Z,44.70
2023-02-24T00:52:17.745Z,45.30
2023-02-24T00:54:47.628Z,42.17
2023-02-24T00:57:18.018Z,42.73
2023-02-24T00:59:48.491Z,41.37
2023-02-24T01:02:16.326Z,43.43
2023-02-24T01:04:44.606Z,39.90
2023-02-24T01:07:13.164Z,38.03
2023-02-24T01:09:42.153Z,41.10
2023-02-24T01:12:39.221Z,40.20
2023-02-24T01:15:10.211Z,40.97
2023-02-24T01:17:38.084Z,45.77
2023-02-24T01:20:17.276Z,46.03
2023-02-24T01:22:50.887Z,44.07
2023-02-24T01:25:20.684Z,42.47
2023-02-24T01:27:48.731Z,42.30
2023-02-24T01:30:16.584Z,43.70
2023-02-24T01:32:45.043Z,47.30
2023-02-24T01:35:12.625Z,44.63
2023-02-24T01:37:40.384Z,41.67
2023-02-24T01:40:12.153Z,44.27
2023-02-24T01:42:42.236Z,46.10
2023-02-24T01:45:18.746Z,44.13
2023-02-24T01:47:47.569Z,45.30
2023-02-24T01:50:17.940Z,43.40
2023-02-24T01:52:50.360Z,43.03
2023-02-24T01:55:37.030Z,48.90
2023-02-24T01:58:27.531Z,46.70
2023-02-24T02:00:55.340Z,44.20
2023-02-24T02:03:35.323Z,45.43
2023-02-24T02:06:08.354Z,45.53
2023-02-24T02:08:42.166Z,44.50
2023-02-24T02:11:26.403Z,43.80
2023-02-24T02:13:55.387Z,46.50
2023-02-24T02:16:47.884Z,43.03
2023-02-24T02:19:55.834Z,41.80
2023-02-24T02:22:53.038Z,40.83
2023-02-24T02:26:19.037Z,42.67
2023-02-24T02:29:09.206Z,42.27
2023-02-24T02:31:55.480Z,45.93
2023-02-24T02:34:42.843Z,45.63
2023-02-24T02:37:16.679Z,43.83
2023-02-24T02:39:59.000Z,43.00
2023-02-24T02:42:26.328Z,44.00
2023-02-24T02:45:10.086Z,44.63
2023-02-24T02:48:02.413Z,45.20
2023-02-24T02:50:46.150Z,45.93
2023-02-24T02:53:37.628Z,44.40
2023-02-24T02:56:24.864Z,43.67
2023-02-24T02:58:55.572Z,44.47
2023-02-24T03:01:30.355Z,47.57
2023-02-24T03:04:07.348Z,46.53
2023-02-24T03:06:43.013Z,47.23
2023-02-24T03:09:21.625Z,43.80
2023-02-24T03:11:56.016Z,45.30
2023-02-24T03:14:33.392Z,43.00
2023-02-24T03:17:04.743Z,45.63
2023-02-24T03:19:39.688Z,42.70
2023-02-24T03:22:22.187Z,42.07
2023-02-24T03:24:49.699Z,44.60
2023-02-24T03:27:37.295Z,43.70
2023-02-24T03:30:16.196Z,43.73
2023-02-24T03:33:21.422Z,47.13
2023-02-24T03:35:51.645Z,46.03
2023-02-24T03:38:23.410Z,44.47
2023-02-24T03:40:51.615Z,45.17
2023-02-24T03:43:26.237Z,41.47
2023-02-24T03:45:55.036Z,43.77
2023-02-24T03:48:24.873Z,47.43
2023-02-24T03:50:53.321Z,47.17
2023-02-24T03:53:23.691Z,49.37
2023-02-24T03:56:22.572Z,48.07
2023-02-24T03:59:18.858Z,47.73
2023-02-24T04:01:58.240Z,48.63
2023-02-24T04:04:42.727Z,48.03
2023-02-24T04:07:40.681Z,53.43
2023-02-24T04:10:24.050Z,54.33
2023-02-24T04:13:25.348Z,50.20
2023-02-24T04:16:00.601Z,50.03
2023-02-24T04:18:31.653Z,49.67
2023-02-24T04:21:03.178Z,51.40
2023-02-24T04:23:40.761Z,49.57
2023-02-24T04:26:10.416Z,49.97
2023-02-24T04:28:38.345Z,49.67
2023-02-24T04:31:14.685Z,47.70
2023-02-24T04:33:42.182Z,50.53
2023-02-24T04:36:13.102Z,43.57
2023-02-24T04:38:40.781Z,45.43
2023-02-24T04:41:08.706Z,46.77
2023-02-24T04:43:36.241Z,49.80
2023-02-24T04:46:08.032Z,47.07
2023-02-24T04:48:36.119Z,50.73
2023-02-24T04:51:06.827Z,44.77
2023-02-24T04:53:34.333Z,43.43
2023-02-24T04:56:09.258Z,47.87
2023-02-24T04:58:39.634Z,45.80
2023-02-24T05:01:11.493Z,45.60
2023-02-24T05:03:42.670Z,43.27
2023-02-24T05:06:18.438Z,41.87
2023-02-24T05:08:45.893Z,40.20
2023-02-24T05:11:18.948Z,40.17
2023-02-24T05:13:47.253Z,40.00
2023-02-24T05:16:18.319Z,42.93
2023-02-24T05:18:45.902Z,38.97
2023-02-24T05:21:36.250Z,40.10
2023-02-24T05:24:07.372Z,38.53
2023-02-24T05:26:38.111Z,36.47
2023-02-24T05:29:06.986Z,38.97
2023-02-24T05:31:35.132Z,33.77
2023-02-24T05:34:07.900Z,36.47
2023-02-24T05:36:41.059Z,34.37
2023-02-24T05:39:12.864Z,33.57
2023-02-24T05:41:43.428Z,36.07
2023-02-24T05:44:23.165Z,34.53
2023-02-24T05:46:58.444Z,31.70
2023-02-24T05:49:34.040Z,29.77
2023-02-24T05:52:09.093Z,28.60
2023-02-24T05:54:41.425Z,29.90
2023-02-24T05:57:13.196Z,23.77
2023-02-24T05:59:42.659Z,21.33
2023-02-24T06:02:14.766Z,20.43
2023-02-24T06:04:51.660Z,20.20
2023-02-24T06:07:25.707Z,20.17
2023-02-24T06:09:58.761Z,19.60
2023-02-24T06:12:35.487Z,20.47
2023-02-24T06:15:07.891Z,19.40
2023-02-24T06:17:35.633Z,19.73
2023-02-24T06:20:13.793Z,20.53
2023-02-24T06:22:42.673Z,19.93
2023-02-24T06:25:14.318Z,21.97
2023-02-24T06:27:43.280Z,21.10
2023-02-24T06:30:11.838Z,18.83
2023-02-24T06:32:39.601Z,21.70
2023-02-24T06:35:07.584Z,23.90
2023-02-24T06:37:36.058Z,20.23
2023-02-24T06:40:15.873Z,19.90
2023-02-24T06:42:55.352Z,19.37
2023-02-24T06:45:24.465Z,21.63
2023-02-24T06:47:52.475Z,18.27
2023-02-24T06:50:20.678Z,18.73
2023-02-24T06:52:49.528Z,20.60
2023-02-24T06:55:26.990Z,19.47
2023-02-24T06:58:04.544Z,18.60
2023-02-24T07:00:41.203Z,18.87
2023-02-24T07:03:17.914Z,20.03
2023-02-24T07:05:50.847Z,21.30
2023-02-24T07:08:27.488Z,20.80
2023-02-24T07:10:58.238Z,21.13
2023-02-24T07:13:30.072Z,20.20
2023-02-24T07:16:00.423Z,21.00
2023-02-24T07:18:27.835Z,20.63
2023-02-24T07:20:55.375Z,19.03
2023-02-24T07:23:22.874Z,22.20
2023-02-24T07:25:50.411Z,20.23
2023-02-24T07:28:19.492Z,19.00
2023-02-24T07:30:47.138Z,18.30
2023-02-24T07:33:14.608Z,19.50
2023-02-24T07:35:42.606Z,19.20
2023-02-24T07:38:10.039Z,17.70
2023-02-24T07:40:37.443Z,17.13
2023-02-24T07:43:06.590Z,17.30
2023-02-24T07:45:35.659Z,18.00
2023-02-24T07:48:03.318Z,17.70
2023-02-24T07:50:33.052Z,19.17
2023-02-24T07:53:04.104Z,17.60
2023-02-24T07:55:36.137Z,17.57
2023-02-24T07:58:06.143Z,15.83
2023-02-24T08:00:50.292Z,16.50
2023-02-24T08:03:17.777Z,14.60
2023-02-24T08:05:45.178Z,15.47
2023-02-24T08:08:13.205Z,15.00
2023-02-24T08:10:41.446Z,15.10
2023-02-24T08:13:12.209Z,14.17
2023-02-24T08:15:39.789Z,16.53
2023-02-24T08:18:07.286Z,15.40
2023-02-24T08:20:52.406Z,14.53
2023-02-24T08:23:20.311Z,13.73
2023-02-24T08:25:47.749Z,14.77
2023-02-24T08:28:15.265Z,16.97
2023-02-24T08:30:48.012Z,15.33
2023-02-24T08:33:22.471Z,15.93
2023-02-24T08:36:01.397Z,17.13
2023-02-24T08:38:40.464Z,15.27
2023-02-24T08:41:21.630Z,15.97
2023-02-24T08:43:50.142Z,17.97
2023-02-24T08:46:26.967Z,14.93
2023-02-24T08:48:58.235Z,18.63
2023-02-24T08:51:35.218Z,15.57
2023-02-24T08:54:18.637Z,15.90
2023-02-24T08:56:56.296Z,17.20
2023-02-24T08:59:38.355Z,16.70
2023-02-24T09:02:19.621Z,16.80
2023-02-24T09:05:03.666Z,17.50
2023-02-24T09:07:36.194Z,18.17
2023-02-24T09:10:11.759Z,19.20
2023-02-24T09:12:42.382Z,19.23
2023-02-24T09:15:15.577Z,18.60
2023-02-24T09:17:44.972Z,18.93
2023-02-24T09:20:41.276Z,17.40
2023-02-24T09:23:09.065Z,18.33
2023-02-24T09:25:49.762Z,19.30
2023-02-24T09:28:25.056Z,20.13
2023-02-24T09:31:05.053Z,18.40
2023-02-24T09:33:39.442Z,16.70
2023-02-24T09:36:11.233Z,18.80
2023-02-24T09:39:03.412Z,18.10
2023-02-24T09:41:54.947Z,15.83
2023-02-24T09:44:36.121Z,14.27
2023-02-24T09:47:14.189Z,15.20
2023-02-24T09:49:59.227Z,14.07
2023-02-24T09:52:42.748Z,15.03
2023-02-24T09:56:00.496Z,12.60
2023-02-24T09:59:14.506Z,14.43
2023-02-24T10:02:39.588Z,12.87
2023-02-24T10:05:27.515Z,13.30
2023-02-24T10:07:57.356Z,9.87
2023-02-24T10:10:29.637Z,11.13
2023-02-24T10:13:17.662Z,9.90
2023-02-24T10:15:58.690Z,8.73
2023-02-24T10:18:44.634Z,7.63
2023-02-24T10:21:49.856Z,7.00
2023-02-24T10:24:37.664Z,6.17
2023-02-24T10:27:26.033Z,7.23
2023-02-24T10:30:41.353Z,6.53
2023-02-24T10:33:31.845Z,6.90
2023-02-24T10:36:18.450Z,5.93
2023-02-24T10:38:46.913Z,6.20
2023-02-24T10:41:15.723Z,7.23
2023-02-24T10:43:56.441Z,5.30
2023-02-24T10:46:38.547Z,6.53
2023-02-24T10:49:16.957Z,5.40
2023-02-24T10:51:52.335Z,4.90
2023-02-24T10:55:05.123Z,6.70
2023-02-24T10:57:47.391Z,4.93
2023-02-24T11:00:32.790Z,5.10
2023-02-24T11:03:10.810Z,5.80
2023-02-24T11:06:17.844Z,5.80
2023-02-24T11:08:45.265Z,5.47
2023-02-24T11:11:25.840Z,7.07
2023-02-24T11:14:14.374Z,5.47
2023-02-24T11:17:11.293Z,5.30
2023-02-24T11:20:01.938Z,5.47
2023-02-24T11:22:36.906Z,6.43
2023-02-24T11:25:19.684Z,7.10
2023-02-24T11:27:47.812Z,5.80
2023-02-24T11:30:51.579Z,5.83
2023-02-24T11:34:05.074Z,5.43
2023-02-24T11:37:03.601Z,5.63
2023-02-24T11:39:54.158Z,5.33
2023-02-24T11:42:39.240Z,6.17
2023-02-24T11:45:19.613Z,5.47
2023-02-24T11:47:55.982Z,5.57
2023-02-24T11:50:49.780Z,4.80
2023-02-24T11:53:50.320Z,7.03
2023-02-24T11:56:50.153Z,4.63
2023-02-24T11:59:43.932Z,5.93
2023-02-24T12:02:54.054Z,5.20
2023-02-24T12:05:28.621Z,7.73
2023-02-24T12:08:06.329Z,7.03
2023-02-24T12:11:14.006Z,5.87
2023-02-24T12:14:11.550Z,6.23
2023-02-24T12:16:46.085Z,7.77
2023-02-24T12:19:26.505Z,7.03
2023-02-24T12:22:06.655Z,7.07
2023-02-24T12:24:37.105Z,8.03
2023-02-24T12:27:36.828Z,7.33
2023-02-24T12:30:34.463Z,7.37
2023-02-24T12:33:29.579Z,8.03
2023-02-24T12:36:08.784Z,9.33
2023-02-24T12:38:57.145Z,8.30
2023-02-24T12:41:51.656Z,7.50
2023-02-24T12:44:42.053Z,8.13
2023-02-24T12:47:20.964Z,8.27
2023-02-24T12:50:23.984Z,10.10
2023-02-24T12:53:15.504Z,10.20
2023-02-24T12:56:20.828Z,8.63
2023-02-24T12:58:54.352Z,9.80
2023-02-24T13:01:32.819Z,9.80
2023-02-24T13:04:16.186Z,8.97
2023-02-24T13:07:02.276Z,11.00
2023-02-24T13:09:52.468Z,9.97
2023-02-24T13:12:34.996Z,9.53
2023-02-24T13:15:06.771Z,9.33
2023-02-24T13:17:34.340Z,10.37
2023-02-24T13:20:14.537Z,9.30
2023-02-24T13:22:46.049Z,9.90
2023-02-24T13:25:27.192Z,9.07
2023-02-24T13:28:00.911Z,8.40
2023-02-24T13:30:38.599Z,10.37
2023-02-24T13:33:21.502Z,10.40
2023-02-24T13:36:06.335Z,10.00
2023-02-24T13:38:39.000Z,9.60
2023-02-24T13:41:30.056Z,9.77
2023-02-24T13:44:24.076Z,8.23
2023-02-24T13:47:20.609Z,9.77
2023-02-24T13:50:12.192Z,9.20
2023-02-24T13:53:23.894Z,9.87
2023-02-24T13:56:38.765Z,7.80
2023-02-24T13:59:47.472Z,7.00
2023-02-24T14:02:18.813Z,7.30
2023-02-24T14:04:56.234Z,7.60
2023-02-24T14:07:34.114Z,7.23
2023-02-24T14:10:19.397Z,6.80
2023-02-24T14:12:49.811Z,6.70
2023-02-24T14:15:23.921Z,7.10
2023-02-24T14:18:00.988Z,8.83
2023-02-24T14:20:34.739Z,8.60
2023-02-24T14:23:04.083Z,7.13
2023-02-24T14:25:38.490Z,7.17
2023-02-24T14:28:06.310Z,5.47
2023-02-24T14:30:38.302Z,6.87
2023-02-24T14:33:08.923Z,4.57
2023-02-24T14:35:42.225Z,5.73
2023-02-24T14:38:32.369Z,4.77
2023-02-24T14:41:00.403Z,4.40
2023-02-24T14:43:28.181Z,4.50
2023-02-24T14:45:58.069Z,4.30
2023-02-24T14:48:30.166Z,3.43
2023-02-24T14:51:25.591Z,5.13
2023-02-24T14:53:59.151Z,3.73
2023-02-24T14:56:34.677Z,3.77
2023-02-24T14:59:16.484Z,3.13
2023-02-24T15:01:50.571Z,5.27
2023-02-24T15:04:37.799Z,5.53
2023-02-24T15:07:12.933Z,4.63
2023-02-24T15:09:45.329Z,3.63
2023-02-24T15:12:17.685Z,3.53
2023-02-24T15:15:01.657Z,4.17
2023-02-24T15:17:29.575Z,3.90
2023-02-24T15:19:57.162Z,6.07
2023-02-24T15:22:34.754Z,4.20
2023-02-24T15:25:33.776Z,3.93
2023-02-24T15:28:05.341Z,3.53
2023-02-24T15:31:02.389Z,5.27
2023-02-24T15:33:38.886Z,4.57
2023-02-24T15:36:12.413Z,5.43
2023-02-24T15:38:43.204Z,4.67
2023-02-24T15:41:13.150Z,4.87
2023-02-24T15:43:53.187Z,4.63
2023-02-24T15:46:33.690Z,3.77
2023-02-24T15:49:03.404Z,4.03
2023-02-24T15:51:40.769Z,5.60
2023-02-24T15:54:17.286Z,2.77
2023-02-24T15:56:47.420Z,3.90
2023-02-24T15:59:17.285Z,4.50
2023-02-24T16:01:45.118Z,3.93
2023-02-24T16:04:12.607Z,5.00
2023-02-24T16:06:42.335Z,5.83
2023-02-24T16:09:15.262Z,7.07
2023-02-24T16:11:46.135Z,14.03
2023-02-24T16:14:18.672Z,13.40
2023-02-24T16:16:46.307Z,13.43
2023-02-24T16:19:15.429Z,10.37
2023-02-24T16:21:43.906Z,9.10
2023-02-24T16:24:11.465Z,5.53
2023-02-24T16:26:40.651Z,5.60
2023-02-24T16:29:14.300Z,3.73
2023-02-24T16:31:42.723Z,5.73
2023-02-24T16:34:16.312Z,6.67
2023-02-24T16:36:44.467Z,7.13
2023-02-24T16:39:14.967Z,6.47
2023-02-24T16:41:42.453Z,7.00
2023-02-24T16:44:10.843Z,4.43
2023-02-24T16:46:41.357Z,7.10
2023-02-24T16:49:14.206Z,5.03
2023-02-24T16:51:41.814Z,5.90
2023-02-24T16:54:09.598Z,4.83
2023-02-24T16:56:38.052Z,6.47
2023-02-24T16:59:05.499Z,5.77
2023-02-24T17:01:33.122Z,5.83
2023-02-24T17:04:00.915Z,6.37
2023-02-24T17:06:29.351Z,6.70
2023-02-24T17:08:56.842Z,8.57
2023-02-24T17:11:27.694Z,6.90
2023-02-24T17:13:55.243Z,6.53
2023-02-24T17:16:23.835Z,7.23
2023-02-24T17:18:51.571Z,10.80
2023-02-24T17:21:19.264Z,10.57
2023-02-24T17:23:46.876Z,10.50
2023-02-24T17:26:15.977Z,12.07
2023-02-24T17:28:44.007Z,8.27
2023-02-24T17:31:12.558Z,8.07
2023-02-24T17:33:41.138Z,8.50
2023-02-24T17:36:08.588Z,11.20
2023-02-24T17:38:36.209Z,8.57
2023-02-24T17:41:03.683Z,7.27
2023-02-24T17:43:31.071Z,7.57
2023-02-24T17:45:58.533Z,9.97
2023-02-24T17:48:26.059Z,9.03
2023-02-24T17:50:53.717Z,8.40
2023-02-24T17:53:21.163Z,8.87
2023-02-24T17:56:01.827Z,8.27
2023-02-24T17:58:30.783Z,8.20
2023-02-24T18:00:58.283Z,7.47
2023-02-24T18:03:25.827Z,9.13
2023-02-24T18:06:06.878Z,8.33
2023-02-24T18:08:37.141Z,8.80
2023-02-24T18:11:07.014Z,8.63
2023-02-24T18:13:34.860Z,9.07
2023-02-24T18:16:08.851Z,10.43
2023-02-24T18:18:36.398Z,10.23
2023-02-24T18:21:05.584Z,11.67
2023-02-24T18:23:33.698Z,10.70
2023-02-24T18:26:06.998Z,10.37
2023-02-24T18:28:35.153Z,11.83
2023-02-24T18:31:10.337Z,11.43
2023-02-24T18:33:38.127Z,13.40
2023-02-24T18:36:06.521Z,12.97
2023-02-24T18:38:34.099Z,13.70
2023-02-24T18:41:05.026Z,14.77
2023-02-24T18:43:35.656Z,19.30
2023-02-24T18:46:08.701Z,18.47
2023-02-24T18:48:36.443Z,18.87
2023-02-24T18:51:04.355Z,16.63
2023-02-24T18:53:37.136Z,14.77
2023-02-24T18:56:09.630Z,16.17
2023-02-24T18:58:37.806Z,15.93
2023-02-24T19:01:14.991Z,15.87
2023-02-24T19:03:43.737Z,16.63
2023-02-24T19:06:12.782Z,17.23
2023-02-24T19:08:42.237Z,18.67
2023-02-24T19:11:17.383Z,15.57
2023-02-24T19:13:48.036Z,18.23
2023-02-24T19:16:17.785Z,17.27
2023-02-24T19:18:48.163Z,15.73
2023-02-24T19:21:15.599Z,16.53
2023-02-24T19:23:43.172Z,17.47
2023-02-24T19:26:23.987Z,19.77
2023-02-24T19:28:52.077Z,20.77
2023-02-24T19:31:27.411Z,17.73
2023-02-24T19:34:03.286Z,16.33
2023-02-24T19:36:32.514Z,16.40
2023-02-24T19:39:00.232Z,16.87
2023-02-24T19:41:28.287Z,18.37
2023-02-24T19:43:55.740Z,17.93
2023-02-24T19:46:23.777Z,17.27
2023-02-24T19:48:51.531Z,14.10
2023-02-24T19:51:23.001Z,16.73
2023-02-24T19:53:55.921Z,13.63
2023-02-24T19:56:35.646Z,13.00
2023-02-24T19:59:06.111Z,14.77
2023-02-24T20:01:34.598Z,16.13
2023-02-24T20:04:04.649Z,14.63
2023-02-24T20:06:39.163Z,14.07
2023-02-24T20:09:10.017Z,13.97
2023-02-24T20:11:41.302Z,15.50
2023-02-24T20:14:10.589Z,12.50
2023-02-24T20:16:40.334Z,12.53
2023-02-24T20:19:09.802Z,19.23
2023-02-24T20:21:38.807Z,18.10
2023-02-24T20:24:14.052Z,15.10
2023-02-24T20:26:47.400Z,11.40
2023-02-24T20:29:18.040Z,13.37
2023-02-24T20:31:46.661Z,13.13
2023-02-24T20:34:16.833Z,14.67
2023-02-24T20:36:44.685Z,13.23
2023-02-24T20:39:12.653Z,11.73
2023-02-24T20:41:41.049Z,11.40
2023-02-24T20:44:09.636Z,12.13
2023-02-24T20:46:38.198Z,9.53
2023-02-24T20:49:09.146Z,12.13
2023-02-24T20:51:38.001Z,11.57
2023-02-24T20:54:07.698Z,12.43
2023-02-24T20:56:38.209Z,12.37
2023-02-24T20:59:09.725Z,12.67
2023-02-24T21:01:39.196Z,13.43
2023-02-24T21:04:08.979Z,11.33
2023-02-24T21:06:37.712Z,11.80
2023-02-24T21:09:05.971Z,13.70
2023-02-24T21:11:34.141Z,10.47
2023-02-24T21:14:01.699Z,10.73
2023-02-24T21:16:29.217Z,12.57
2023-02-24T21:18:58.973Z,10.13
2023-02-24T21:21:26.786Z,10.03
2023-02-24T21:23:54.589Z,12.13
2023-02-24T21:26:23.407Z,7.73
2023-02-24T21:28:57.464Z,7.17
2023-02-24T21:31:26.560Z,8.97
2023-02-24T21:33:55.105Z,9.70
2023-02-24T21:36:26.152Z,8.03
2023-02-24T21:38:54.777Z,8.57
2023-02-24T21:41:23.892Z,8.07
2023-02-24T21:43:55.996Z,8.97
2023-02-24T21:46:28.479Z,7.43
2023-02-24T21:49:00.471Z,7.53
2023-02-24T21:51:29.433Z,8.20
2023-02-24T21:53:57.686Z,8.07
2023-02-24T21:56:28.810Z,8.93
2023-02-24T21:59:06.086Z,10.83
2023-02-24T22:01:41.388Z,8.00
2023-02-24T22:04:18.987Z,10.77
2023-02-24T22:06:46.457Z,10.23
2023-02-24T22:09:19.730Z,7.93
2023-02-24T22:11:49.715Z,11.93
2023-02-24T22:14:17.903Z,8.90
2023-02-24T22:16:45.763Z,8.43
2023-02-24T22:19:13.351Z,8.33
2023-02-24T22:21:42.685Z,8.17
2023-02-24T22:24:14.437Z,7.37
2023-02-24T22:26:42.481Z,7.37
2023-02-24T22:29:10.813Z,8.03
2023-02-24T22:31:39.354Z,5.27
2023-02-24T22:34:08.936Z,4.33
2023-02-24T22:36:37.932Z,4.27
2023-02-24T22:39:06.022Z,4.00
2023-02-24T22:41:35.672Z,5.80
2023-02-24T22:44:05.338Z,4.57
2023-02-24T22:46:36.700Z,4.13
2023-02-24T22:49:05.270Z,4.27
2023-02-24T22:51:32.935Z,5.73
2023-02-24T22:54:00.361Z,4.53
2023-02-24T22:56:29.825Z,5.00
2023-02-24T22:58:58.427Z,5.20
2023-02-24T23:01:31.921Z,5.77
2023-02-24T23:04:01.556Z,5.03
2023-02-24T23:06:30.490Z,4.20
2023-02-24T23:09:00.453Z,4.30
2023-02-24T23:11:32.628Z,5.17
2023-02-24T23:14:04.234Z,3.77
2023-02-24T23:16:34.798Z,3.90
2023-02-24T23:19:06.346Z,4.50
2023-02-24T23:21:46.793Z,4.03
2023-02-24T23:24:15.665Z,4.00
2023-02-24T23:26:47.935Z,4.33
2023-02-24T23:29:18.044Z,4.00
2023-02-24T23:31:46.492Z,4.00
2023-02-24T23:34:15.007Z,4.33
2023-02-24T23:36:45.817Z,4.30
2023-02-24T23:39:16.628Z,3.87
2023-02-24T23:41:44.228Z,4.80
2023-02-24T23:44:12.662Z,3.40
2023-02-24T23:46:41.972Z,3.33
2023-02-24T23:49:09.830Z,3.27
2023-02-24T23:51:53.006Z,3.30
2023-02-24T23:54:20.652Z,3.90
2023-02-24T23:56:48.221Z,3.73
2023-02-24T23:59:16.161Z,3.60
